Airport Information

KOTH - Southwest Oregon Regional Airport

KOTH 160756Z AUTO 16005KT 10SM FEW065 BKN120 06/03 A2969 RMK AO2 SLP053 T00610028 401170039


  • General Information

  • Coordinates: N 43°25'1"/ W 124°14'45"
  • Location: N/A
  • Surveyed Elevation: 17 MSL

Operations

Flow Name Active Runways Conditions

Green background denotes normal operations.


Common Frequencies

Callsign Frequency Position Name

More at the Document Center


Charts